Time;durP1;ratioP1;P1;durP2;ratioP2;P2;SDS_P1;SDS_P2;PMS_P1;PMS_P2;Temp;Humidity;BMP_temperature;BMP_pressure;BME280_temperature;BME280_humidity;BME280_pressure;Samples;Min_cycle;Max_cycle;Signal;HPM_P1;HPM_P2
2023/01/23 00:01:38;;;;;;;39.13;20.97;;;2.00;99.90;;;0.92;92.96;102814.31;5030663;28;20203;-74
2023/01/23 00:04:07;;;;;;;35.77;21.70;;;1.90;99.90;;;0.92;93.23;102819.59;5030514;28;20230;-74
2023/01/23 00:06:35;;;;;;;44.03;23.07;;;2.00;99.90;;;0.91;93.18;102820.50;5030310;28;20213;-74
2023/01/23 00:09:04;;;;;;;44.83;22.80;;;1.90;99.90;;;0.93;93.28;102816.03;5030460;28;20707;-74
2023/01/23 00:11:34;;;;;;;37.53;21.07;;;2.00;99.90;;;0.94;93.35;102818.63;5030116;28;20236;-74
2023/01/23 00:14:03;;;;;;;41.00;21.87;;;2.00;99.90;;;0.92;92.78;102819.59;5030424;28;20655;-74
2023/01/23 00:16:33;;;;;;;38.60;21.70;;;2.00;99.90;;;0.94;93.59;102825.66;5030166;28;20222;-74
2023/01/23 00:19:01;;;;;;;38.30;20.87;;;2.00;99.90;;;0.97;92.97;102822.94;5030078;28;20227;-74
2023/01/23 00:21:30;;;;;;;39.37;20.73;;;2.00;99.90;;;0.98;92.88;102820.25;5030184;28;20297;-74
2023/01/23 00:24:01;;;;;;;41.47;22.33;;;2.00;99.90;;;0.96;92.69;102821.19;5029970;28;20233;-74
2023/01/23 00:26:33;;;;;;;41.57;22.37;;;2.00;99.90;;;0.95;92.75;102825.63;5030243;28;20199;-74
2023/01/23 00:29:02;;;;;;;45.90;21.80;;;2.00;99.90;;;0.92;92.83;102815.19;5030134;28;20226;-74
2023/01/23 00:31:34;;;;;;;39.47;20.40;;;2.00;99.90;;;0.92;92.79;102822.22;5030198;28;20207;-74
2023/01/23 00:34:06;;;;;;;41.63;21.10;;;2.00;99.90;;;0.91;93.05;102823.13;5030119;28;20187;-74
2023/01/23 00:36:37;;;;;;;45.10;21.40;;;2.00;99.90;;;0.92;93.50;102822.22;5029139;28;20667;-74
2023/01/23 00:39:09;;;;;;;46.10;22.10;;;2.00;99.90;;;0.90;93.28;102819.63;5030129;28;20222;-74
2023/01/23 00:41:38;;;;;;;43.47;22.10;;;2.00;99.90;;;0.91;93.69;102834.53;5030168;28;20183;-73
2023/01/23 00:44:07;;;;;;;46.97;22.07;;;2.00;99.90;;;0.87;93.54;102829.41;5029863;28;20272;-73
2023/01/23 00:46:35;;;;;;;52.60;22.50;;;1.90;99.90;;;0.85;93.80;102812.78;5029684;28;20555;-73
2023/01/23 00:49:04;;;;;;;48.80;22.30;;;1.90;99.90;;;0.87;94.13;102821.50;5029829;28;20230;-73
2023/01/23 00:51:32;;;;;;;50.37;21.30;;;1.90;99.90;;;0.88;93.26;102823.22;5029798;28;20195;-73
2023/01/23 00:54:01;;;;;;;49.40;21.07;;;1.90;99.90;;;0.85;93.81;102813.66;5029017;28;20679;-73
2023/01/23 00:56:29;;;;;;;47.80;20.83;;;1.90;99.90;;;0.86;93.04;102819.75;5010255;28;20219;-73
2023/01/23 00:58:58;;;;;;;49.20;21.07;;;1.90;99.90;;;0.88;93.68;102820.59;5010011;28;20254;-73
2023/01/23 01:01:27;;;;;;;44.47;19.70;;;1.90;99.90;;;0.90;93.51;102826.66;5022132;28;20583;-73
2023/01/23 01:03:55;;;;;;;39.17;18.67;;;1.90;99.90;;;0.90;93.18;102821.41;5029426;28;20233;-73
2023/01/23 01:06:24;;;;;;;39.77;19.00;;;2.00;99.90;;;0.92;93.79;102814.31;5029513;28;20210;-73
2023/01/23 01:08:52;;;;;;;36.77;20.37;;;2.00;99.90;;;0.90;93.98;102824.91;5030457;28;20737;-72
2023/01/23 01:11:20;;;;;;;43.23;20.53;;;2.00;99.90;;;0.91;93.45;102828.41;5030844;28;20765;-73
2023/01/23 01:13:48;;;;;;;41.63;19.77;;;1.90;99.90;;;0.93;93.69;102831.84;5030258;28;20257;-72
2023/01/23 01:16:18;;;;;;;45.63;20.63;;;2.00;99.90;;;0.93;93.17;102831.84;5029947;28;20211;-72
2023/01/23 01:18:46;;;;;;;42.17;19.50;;;2.00;99.90;;;0.94;93.46;102839.72;5029504;28;20223;-73
2023/01/23 01:21:15;;;;;;;44.17;19.67;;;2.00;99.90;;;0.96;93.68;102842.28;5029508;28;20265;-73
2023/01/23 01:23:43;;;;;;;40.10;19.13;;;2.00;99.90;;;0.94;93.36;102841.50;5029248;28;20721;-73
2023/01/23 01:26:12;;;;;;;40.43;19.77;;;2.00;99.90;;;0.94;92.75;102849.41;5029201;28;20207;-73
2023/01/23 01:28:42;;;;;;;41.73;20.67;;;2.00;99.90;;;0.95;92.96;102843.22;5030452;28;20237;-73
2023/01/23 01:31:13;;;;;;;36.30;19.03;;;2.00;99.90;;;0.95;93.08;102851.13;5033767;28;20203;-73
2023/01/23 01:33:44;;;;;;;45.03;20.47;;;2.00;99.90;;;0.96;92.99;102863.38;5033429;28;20202;-73
2023/01/23 01:36:15;;;;;;;47.23;20.73;;;2.00;99.90;;;0.96;93.59;102852.84;5033350;28;20186;-73
2023/01/23 01:38:43;;;;;;;43.93;19.70;;;2.00;99.90;;;0.96;92.97;102858.97;5033412;28;20234;-73
2023/01/23 01:41:13;;;;;;;44.27;21.90;;;2.00;99.90;;;0.97;93.13;102859.84;5033627;28;20276;-73
2023/01/23 01:43:42;;;;;;;45.30;21.63;;;2.00;99.90;;;0.98;93.57;102861.59;5032910;28;20696;-73
2023/01/23 01:46:19;;;;;;;48.13;21.90;;;2.10;99.90;;;0.95;93.24;102866.97;5032600;28;20215;-72
2023/01/23 01:49:07;;;;;;;34.67;18.57;;;2.00;99.90;;;0.99;92.71;102865.97;5032824;28;20254;-73
2023/01/23 01:51:42;;;;;;;44.10;20.80;;;2.00;99.90;;;1.00;93.22;102865.03;5033152;28;20194;-73
2023/01/23 01:54:21;;;;;;;43.97;21.33;;;2.10;99.90;;;0.96;93.33;102872.16;5033179;28;20197;-72
2023/01/23 01:56:56;;;;;;;48.73;21.50;;;2.00;99.90;;;0.95;92.76;102874.88;5032498;28;20203;-73
2023/01/23 01:59:31;;;;;;;48.47;22.10;;;2.00;99.90;;;0.96;93.24;102876.56;5033136;28;20247;-73
2023/01/23 02:02:11;;;;;;;47.17;21.63;;;2.00;99.90;;;0.93;93.00;102879.31;5032444;28;20888;-73
2023/01/23 02:04:48;;;;;;;54.23;21.90;;;2.00;99.90;;;0.95;93.04;102888.06;5033080;28;20226;-73
2023/01/23 02:07:26;;;;;;;49.40;20.97;;;2.00;99.90;;;0.92;93.41;102885.53;5032719;28;20191;-73
2023/01/23 02:09:56;;;;;;;47.17;20.33;;;2.00;99.90;;;0.95;93.82;102888.06;5032575;28;20226;-73
2023/01/23 02:12:26;;;;;;;49.27;21.40;;;2.00;99.90;;;0.96;93.09;102892.41;5032889;28;20207;-72
2023/01/23 02:14:55;;;;;;;41.13;20.07;;;2.00;99.90;;;0.97;93.06;102883.59;5032828;28;20187;-72
2023/01/23 02:17:24;;;;;;;41.43;21.40;;;2.10;99.90;;;0.97;93.72;102886.22;5032481;28;20207;-73
2023/01/23 02:20:03;;;;;;;41.07;20.77;;;2.00;99.90;;;0.98;93.45;102883.56;5032464;28;20226;-73
2023/01/23 02:22:44;;;;;;;39.73;20.77;;;2.00;99.90;;;0.99;93.28;102887.06;5032443;28;20301;-72
2023/01/23 02:25:26;;;;;;;41.73;20.23;;;2.00;99.90;;;1.01;93.49;102882.59;5032135;28;20234;-73
2023/01/23 02:27:56;;;;;;;41.10;18.93;;;2.10;99.90;;;1.01;92.81;102887.88;5032344;28;20213;-72
2023/01/23 02:30:25;;;;;;;43.17;19.77;;;2.00;99.90;;;1.01;93.02;102885.22;5032182;28;20238;-73
2023/01/23 02:32:53;;;;;;;47.27;19.97;;;2.10;99.90;;;0.98;93.08;102887.97;5032466;28;20203;-73
2023/01/23 02:35:26;;;;;;;44.13;20.40;;;2.00;99.90;;;1.00;93.37;102899.31;5032264;28;20221;-74
2023/01/23 02:38:02;;;;;;;43.57;19.73;;;2.00;99.90;;;1.00;93.47;102904.59;5031604;28;20635;-74
2023/01/23 02:40:32;;;;;;;48.03;20.70;;;2.00;99.90;;;0.98;93.20;102906.44;5031827;28;20226;-74
2023/01/23 02:43:04;;;;;;;45.90;20.93;;;2.00;99.90;;;0.98;93.49;102904.66;5032065;28;20445;-74
2023/01/23 02:45:32;;;;;;;45.17;20.67;;;2.00;99.90;;;0.99;93.03;102910.81;5031731;28;20227;-74
2023/01/23 02:48:04;;;;;;;50.27;21.80;;;2.10;99.90;;;0.98;92.83;102914.34;5032052;28;20276;-74
2023/01/23 02:50:32;;;;;;;43.07;20.47;;;2.00;99.90;;;0.96;92.92;102916.13;5032234;28;20242;-74
2023/01/23 02:53:01;;;;;;;51.73;21.20;;;2.00;99.90;;;0.97;93.45;102917.88;5031697;28;20207;-74
2023/01/23 02:55:30;;;;;;;46.10;21.50;;;2.00;99.90;;;0.95;94.00;102919.72;5031592;28;20210;-74
2023/01/23 03:00:14;;;;;;;42.10;21.10;;;2.00;99.90;;;0.96;92.80;102908.22;5031927;28;20206;-74
2023/01/23 03:00:47;;;;;;;41.67;19.97;;;2.00;99.90;;;0.97;92.76;102910.84;5031549;28;20207;-74
2023/01/23 03:03:15;;;;;;;47.90;23.30;;;2.10;99.90;;;0.98;93.32;102915.22;5031585;28;20636;-74
2023/01/23 03:05:43;;;;;;;50.77;21.40;;;2.10;99.90;;;1.01;93.28;102911.59;5031516;28;20233;-74
2023/01/23 03:08:11;;;;;;;48.73;21.77;;;2.10;99.90;;;1.00;93.31;102917.78;5031509;28;20215;-74
2023/01/23 03:10:39;;;;;;;44.53;21.57;;;2.10;99.90;;;1.02;93.19;102922.13;5031722;28;20214;-74
2023/01/23 03:13:10;;;;;;;48.97;22.43;;;2.10;99.90;;;1.00;92.83;102917.78;5031622;28;20272;-74
2023/01/23 03:15:40;;;;;;;46.07;21.73;;;2.10;99.90;;;0.99;92.45;102916.06;5031307;28;20191;-74
2023/01/23 03:18:10;;;;;;;46.20;22.20;;;2.00;99.90;;;1.02;92.72;102913.34;5031496;28;20198;-74
2023/01/23 03:20:40;;;;;;;46.67;21.73;;;2.10;99.90;;;1.03;92.76;102920.31;5031635;28;20272;-74
2023/01/23 03:23:08;;;;;;;41.00;20.93;;;2.10;99.90;;;1.01;92.97;102924.78;5031153;28;20581;-74
2023/01/23 03:25:36;;;;;;;38.43;20.40;;;2.10;99.90;;;1.00;92.35;102923.91;5031246;28;20238;-74
2023/01/23 03:30:11;;;;;;;37.27;20.67;;;2.10;99.90;;;1.01;92.20;102927.44;5031048;28;20206;-74
2023/01/23 03:30:52;;;;;;;38.97;19.80;;;2.10;99.90;;;1.02;92.22;102922.13;5030856;28;20207;-74
2023/01/23 03:33:21;;;;;;;39.10;19.73;;;2.10;99.90;;;1.03;92.67;102921.19;5031221;28;20249;-74
2023/01/23 03:35:50;;;;;;;38.97;20.63;;;2.10;99.90;;;1.02;91.98;102926.53;5030700;28;20209;-73
2023/01/23 03:38:18;;;;;;;35.97;20.63;;;2.10;99.90;;;1.01;92.31;102925.66;5030585;28;20265;-74
2023/01/23 03:43:35;;;;;;;40.53;21.20;;;2.00;99.90;;;1.00;92.67;102926.56;5031133;28;20223;-74
2023/01/23 03:46:03;;;;;;;38.90;21.10;;;2.00;99.90;;;1.00;92.82;102923.91;5030780;28;20277;-74
2023/01/23 03:48:33;;;;;;;38.03;20.83;;;2.10;99.90;;;1.01;92.59;102917.75;5031373;28;20234;-73
2023/01/23 03:51:01;;;;;;;45.33;21.60;;;2.10;99.90;;;0.98;92.77;102915.22;5030389;28;20202;-73
2023/01/23 03:53:29;;;;;;;38.33;19.77;;;2.00;99.90;;;1.00;92.29;102920.41;5031487;28;20207;-73
2023/01/23 03:55:57;;;;;;;35.47;19.27;;;2.10;99.90;;;1.01;92.03;102920.38;5030938;28;20213;-74
2023/01/23 03:58:25;;;;;;;34.83;18.57;;;2.10;99.90;;;1.02;92.00;102926.53;5030686;28;20202;-73
2023/01/23 04:00:53;;;;;;;33.07;19.67;;;2.10;99.90;;;1.02;92.13;102913.34;5030748;28;20735;-73
2023/01/23 04:03:22;;;;;;;34.87;19.90;;;2.10;99.90;;;1.02;91.98;102914.22;5030756;28;20297;-73
2023/01/23 04:05:56;;;;;;;34.20;20.03;;;2.10;99.90;;;0.99;92.58;102914.28;5030516;28;20226;-72
2023/01/23 04:08:25;;;;;;;36.07;19.70;;;2.10;99.90;;;1.00;92.40;102923.06;5030577;28;20195;-73
2023/01/23 04:11:02;;;;;;;34.90;20.80;;;2.00;99.90;;;1.01;92.80;102914.25;5030422;28;20211;-73
2023/01/23 04:13:30;;;;;;;41.80;20.70;;;2.00;99.90;;;0.99;91.94;102916.06;5030438;28;20206;-73
2023/01/23 04:15:59;;;;;;;46.83;21.53;;;2.10;99.90;;;0.96;92.04;102917.00;5029667;28;20206;-73
2023/01/23 04:18:28;;;;;;;38.00;20.97;;;2.00;99.90;;;0.96;92.76;102918.78;5030452;28;20207;-73
2023/01/23 04:20:58;;;;;;;39.90;20.47;;;2.00;99.90;;;0.95;92.18;102922.34;5030138;28;20214;-73
2023/01/23 04:23:26;;;;;;;39.17;19.57;;;2.00;99.90;;;0.96;92.87;102927.56;5030278;28;20207;-73
2023/01/23 04:25:54;;;;;;;42.10;20.73;;;2.00;99.90;;;0.97;92.80;102933.69;5029627;28;20226;-73
2023/01/23 04:28:23;;;;;;;39.83;20.57;;;2.00;99.90;;;0.96;92.36;102931.97;5029510;28;20214;-73
2023/01/23 04:30:52;;;;;;;42.50;21.47;;;2.00;99.90;;;0.97;92.38;102934.56;5030198;28;20210;-73
2023/01/23 04:33:21;;;;;;;41.13;20.43;;;2.00;99.90;;;0.95;92.18;102938.16;5029921;28;20207;-73
2023/01/23 04:35:53;;;;;;;44.70;20.83;;;2.00;99.90;;;0.98;92.24;102943.34;5029750;28;20222;-73
2023/01/23 04:38:22;;;;;;;34.63;20.70;;;2.00;99.90;;;1.00;92.65;102949.44;5029311;28;20210;-73
2023/01/23 04:40:51;;;;;;;43.43;21.43;;;2.00;99.90;;;0.99;92.76;102948.56;5030047;28;20209;-73
2023/01/23 04:43:20;;;;;;;36.40;20.20;;;2.00;99.90;;;1.01;92.85;102956.44;5029799;28;20214;-73
2023/01/23 04:45:50;;;;;;;40.27;20.93;;;2.10;99.90;;;1.00;92.05;102959.97;5029624;28;20219;-73
2023/01/23 04:48:22;;;;;;;41.87;21.00;;;2.00;99.90;;;1.02;92.54;102947.63;5029810;28;20207;-73
2023/01/23 04:50:51;;;;;;;37.93;21.20;;;2.10;99.90;;;1.03;92.56;102946.69;5029526;28;20210;-73
2023/01/23 04:53:19;;;;;;;43.03;21.37;;;2.10;99.90;;;1.04;92.27;102943.16;5030001;28;20214;-73
2023/01/23 04:55:51;;;;;;;38.27;19.60;;;2.10;99.90;;;1.06;92.19;102937.84;5029539;28;20207;-73
2023/01/23 04:58:20;;;;;;;39.10;20.67;;;2.10;99.90;;;1.06;92.46;102943.13;5029533;28;20206;-73
2023/01/23 05:00:48;;;;;;;40.10;21.60;;;2.10;99.90;;;1.06;91.83;102938.72;5029675;28;20194;-73
2023/01/23 05:03:17;;;;;;;38.37;20.13;;;2.10;99.90;;;1.06;92.37;102933.44;5028704;28;20203;-73
2023/01/23 05:05:48;;;;;;;41.93;20.20;;;2.10;99.90;;;1.06;92.27;102937.84;5029338;28;20234;-73
2023/01/23 05:08:16;;;;;;;35.73;19.60;;;2.10;99.90;;;1.05;92.35;102931.72;5029159;28;20207;-73
2023/01/23 05:10:44;;;;;;;39.90;21.47;;;2.10;99.90;;;1.08;92.09;102928.97;5029448;28;20564;-74
2023/01/23 05:13:14;;;;;;;38.57;19.63;;;2.10;99.90;;;1.08;92.30;102934.25;5029393;28;20687;-74
2023/01/23 05:15:42;;;;;;;38.30;21.10;;;2.10;99.90;;;1.04;92.22;102937.88;5029117;28;20206;-74
2023/01/23 05:18:10;;;;;;;38.83;20.57;;;2.10;99.90;;;1.02;91.92;102945.84;5029426;28;20219;-74
2023/01/23 05:20:38;;;;;;;43.43;22.57;;;2.00;99.90;;;1.02;92.07;102939.72;5029382;28;20202;-74
2023/01/23 05:23:06;;;;;;;37.63;21.03;;;2.10;99.90;;;1.02;91.76;102947.63;5029335;28;20625;-74
2023/01/23 05:25:37;;;;;;;36.43;20.33;;;2.10;99.90;;;1.02;92.38;102953.78;5028852;28;20329;-74
2023/01/23 05:28:05;;;;;;;37.17;21.13;;;2.10;99.90;;;1.03;91.88;102959.88;5029158;28;20202;-74
2023/01/23 05:30:34;;;;;;;33.77;19.60;;;2.10;99.90;;;1.01;91.88;102967.00;5029096;28;20321;-74
2023/01/23 05:33:03;;;;;;;37.03;20.40;;;2.10;99.90;;;1.03;92.33;102959.88;5029459;28;20306;-74
2023/01/23 05:35:31;;;;;;;43.67;21.93;;;2.10;99.90;;;1.02;92.04;102956.41;5029319;28;20214;-74
2023/01/23 05:38:00;;;;;;;35.87;20.63;;;2.10;99.90;;;1.04;92.48;102956.34;5029106;28;20202;-74
2023/01/23 05:40:28;;;;;;;35.37;20.33;;;2.10;99.90;;;1.05;92.25;102951.94;5028734;28;20230;-74
2023/01/23 05:42:57;;;;;;;37.77;21.63;;;2.10;99.90;;;1.01;91.98;102956.44;5028856;28;20222;-74
2023/01/23 05:45:27;;;;;;;46.87;22.50;;;2.10;99.90;;;1.03;91.88;102949.34;5029108;28;20207;-74
2023/01/23 05:47:57;;;;;;;40.70;21.87;;;2.00;99.90;;;0.99;92.44;102958.28;5029113;28;20218;-74
2023/01/23 05:50:26;;;;;;;39.23;21.43;;;2.00;99.90;;;0.95;92.38;102961.91;5029119;28;20269;-74
2023/01/23 05:52:54;;;;;;;35.33;21.07;;;2.00;99.90;;;0.95;92.55;102959.28;5029005;28;20846;-74
2023/01/23 05:55:22;;;;;;;38.03;20.93;;;2.00;99.90;;;0.97;92.43;102962.72;5028949;28;20210;-74
2023/01/23 05:57:51;;;;;;;39.43;20.63;;;2.00;99.90;;;0.96;91.72;102969.75;5028676;28;20215;-74
2023/01/23 06:00:20;;;;;;;36.70;21.03;;;2.00;99.90;;;0.95;91.46;102975.09;5025816;28;20227;-74
2023/01/23 06:02:49;;;;;;;35.60;20.10;;;2.00;99.90;;;0.97;91.66;102973.25;5009198;28;20216;-74
2023/01/23 06:05:18;;;;;;;32.90;19.80;;;2.00;99.90;;;1.00;92.00;102987.22;5009310;28;20211;-74
2023/01/23 06:07:46;;;;;;;37.17;20.53;;;2.10;99.90;;;0.98;91.47;102993.47;5009008;28;20223;-74
2023/01/23 06:10:15;;;;;;;37.13;20.03;;;2.10;99.80;;;0.99;91.60;102995.19;5008883;28;20631;-74
2023/01/23 06:12:44;;;;;;;32.30;19.77;;;2.00;99.80;;;1.01;91.66;103001.28;5008987;28;20721;-74
2023/01/23 06:15:12;;;;;;;37.23;21.13;;;2.10;99.90;;;0.98;91.47;102996.09;5010903;28;20231;-74
2023/01/23 06:17:40;;;;;;;36.47;20.07;;;2.00;99.60;;;0.97;91.07;103002.28;5012558;28;20199;-74
2023/01/23 06:20:11;;;;;;;37.27;19.63;;;2.00;99.80;;;0.94;91.49;103005.00;5012957;28;20230;-74
2023/01/23 06:22:40;;;;;;;36.47;21.83;;;2.00;99.70;;;0.96;91.70;103011.94;5012867;28;20262;-73
2023/01/23 06:25:10;;;;;;;38.37;21.97;;;2.00;99.90;;;0.99;91.55;103022.41;5012678;28;20578;-73
2023/01/23 06:27:38;;;;;;;37.23;20.87;;;2.10;99.70;;;1.00;91.69;103026.78;5030178;28;20241;-73
2023/01/23 06:30:09;;;;;;;34.57;19.73;;;2.10;99.90;;;0.97;91.01;103026.00;5031937;28;20227;-73
2023/01/23 06:32:37;;;;;;;37.77;22.00;;;2.00;99.60;;;0.94;90.94;103029.59;5032402;28;20214;-73
2023/01/23 06:35:06;;;;;;;35.80;20.83;;;2.00;99.60;;;0.95;91.33;103022.56;5032180;28;20211;-73
2023/01/23 06:37:35;;;;;;;37.77;21.33;;;2.00;99.70;;;0.95;91.20;103019.94;5032012;28;20221;-73
2023/01/23 06:40:05;;;;;;;33.60;19.60;;;2.00;99.70;;;0.98;91.47;103030.38;5032491;28;20317;-73
2023/01/23 06:42:34;;;;;;;39.80;23.87;;;2.00;99.70;;;0.97;90.99;103026.00;5031839;28;20671;-73
2023/01/23 06:45:02;;;;;;;36.57;20.90;;;2.00;99.60;;;0.99;91.15;103026.84;5032572;28;20214;-73
2023/01/23 06:47:32;;;;;;;35.33;20.23;;;2.00;99.60;;;0.98;90.72;103022.47;5031890;28;20235;-73
2023/01/23 06:50:01;;;;;;;39.63;21.90;;;2.00;99.60;;;0.97;91.42;103031.28;5032577;28;20238;-73
2023/01/23 06:52:32;;;;;;;34.73;20.63;;;2.00;99.50;;;0.95;91.22;103046.31;5031872;28;20241;-73
2023/01/23 06:55:00;;;;;;;31.93;20.33;;;2.00;99.60;;;0.95;90.98;103051.56;5030861;28;20570;-73
2023/01/23 06:57:29;;;;;;;33.23;19.90;;;2.00;99.60;;;0.95;91.27;103067.41;5031615;28;20786;-73
2023/01/23 06:59:58;;;;;;;32.67;19.57;;;2.00;99.50;;;0.95;90.53;103067.41;5031752;28;20223;-73
2023/01/23 07:02:26;;;;;;;30.30;18.57;;;2.00;99.50;;;0.92;90.69;103067.50;5031728;28;20680;-73
2023/01/23 07:04:54;;;;;;;30.80;19.93;;;2.00;99.40;;;0.93;90.87;103067.44;5031340;28;20222;-73
2023/01/23 07:07:23;;;;;;;31.07;20.13;;;2.00;99.40;;;0.93;90.38;103066.56;5031408;28;20226;-74
2023/01/23 07:09:51;;;;;;;29.83;18.83;;;2.00;99.40;;;0.92;90.52;103068.34;5031440;28;20231;-73
2023/01/23 07:12:19;;;;;;;27.97;18.47;;;2.00;99.40;;;0.89;90.48;103064.94;5031561;28;20219;-73
2023/01/23 07:14:48;;;;;;;29.70;19.07;;;1.90;99.30;;;0.90;90.73;103075.44;5031828;28;20210;-73
2023/01/23 07:17:16;;;;;;;31.27;19.37;;;1.90;99.40;;;0.91;90.24;103073.66;5030957;28;20209;-73
2023/01/23 07:19:44;;;;;;;29.53;19.00;;;2.00;99.30;;;0.91;90.14;103082.44;5031403;28;20238;-73
2023/01/23 07:22:16;;;;;;;30.20;19.70;;;2.00;99.30;;;0.85;90.97;103082.63;5031197;28;20207;-73
2023/01/23 07:24:44;;;;;;;29.97;19.10;;;1.90;99.30;;;0.86;90.92;103088.72;5031840;28;20214;-73
2023/01/23 07:27:12;;;;;;;32.07;20.17;;;1.90;99.40;;;0.84;91.07;103101.09;5030011;28;20227;-73
2023/01/23 07:29:40;;;;;;;29.53;20.20;;;1.90;99.30;;;0.84;91.41;103095.81;5030901;28;20590;-73
2023/01/23 07:32:10;;;;;;;31.03;19.63;;;1.90;99.50;;;0.84;90.77;103101.09;5030744;28;20573;-73
2023/01/23 07:34:38;;;;;;;32.07;20.00;;;1.90;99.50;;;0.85;91.01;103103.72;5031165;28;20581;-73
2023/01/23 07:37:07;;;;;;;35.70;21.97;;;1.90;99.50;;;0.86;91.03;103109.81;5030367;28;20203;-73
2023/01/23 07:39:35;;;;;;;35.53;21.30;;;1.90;99.40;;;0.85;91.11;103110.75;5031517;28;20249;-73
2023/01/23 07:42:03;;;;;;;33.93;21.13;;;1.90;99.50;;;0.85;91.33;103108.13;5030857;28;20223;-73
2023/01/23 07:44:31;;;;;;;33.40;20.77;;;1.90;99.50;;;0.85;90.87;103114.25;5030713;28;20301;-73
2023/01/23 07:46:59;;;;;;;36.60;21.13;;;1.90;99.50;;;0.84;90.43;103112.53;5030421;28;20591;-73
2023/01/23 07:49:29;;;;;;;35.10;21.67;;;1.90;99.50;;;0.82;90.89;103113.47;5030813;28;20226;-73
2023/01/23 07:51:57;;;;;;;35.07;21.83;;;1.90;99.50;;;0.81;91.53;103111.72;5030529;28;20584;-73
2023/01/23 07:54:25;;;;;;;41.70;23.53;;;1.90;99.50;;;0.82;91.67;103108.19;5031106;28;20207;-74
2023/01/23 07:56:54;;;;;;;37.20;22.27;;;1.80;99.50;;;0.80;90.98;103110.88;5030518;28;20230;-74
2023/01/23 07:59:22;;;;;;;40.13;22.10;;;1.90;99.60;;;0.82;91.25;103108.19;5030410;28;20226;-74
2023/01/23 08:01:51;;;;;;;36.93;21.47;;;1.90;99.60;;;0.83;90.71;103115.19;5030154;28;20218;-72
2023/01/23 08:04:20;;;;;;;35.40;20.33;;;1.90;99.60;;;0.84;91.01;103116.94;5030714;28;20191;-73
2023/01/23 08:06:49;;;;;;;37.87;21.77;;;1.90;99.50;;;0.80;91.35;103116.13;5030046;28;20594;-72
2023/01/23 08:09:18;;;;;;;37.90;22.03;;;1.90;99.60;;;0.81;90.71;103127.56;5030230;28;20227;-72
2023/01/23 08:11:46;;;;;;;36.87;22.23;;;1.80;99.50;;;0.81;90.74;103120.50;5030085;28;20207;-73
2023/01/23 08:14:14;;;;;;;37.80;22.80;;;1.90;99.50;;;0.85;91.62;103124.81;5030207;28;20269;-73
2023/01/23 08:16:42;;;;;;;37.17;22.57;;;1.90;99.90;;;0.84;91.48;103122.19;5030049;28;20202;-73
2023/01/23 08:19:10;;;;;;;38.93;21.57;;;1.90;99.50;;;0.83;90.82;103120.47;5029935;28;20223;-73
2023/01/23 08:21:38;;;;;;;36.10;21.97;;;1.90;99.50;;;0.83;91.48;103120.47;5030199;28;20211;-73
2023/01/23 08:24:10;;;;;;;38.67;22.90;;;1.90;99.60;;;0.83;91.45;103116.06;5030161;28;20202;-73
2023/01/23 08:26:40;;;;;;;33.43;20.87;;;1.90;99.50;;;0.83;91.09;103120.47;5029762;28;20207;-73
2023/01/23 08:29:08;;;;;;;40.17;23.27;;;1.90;99.50;;;0.83;90.76;103117.81;5029612;28;20219;-73
2023/01/23 08:31:36;;;;;;;32.53;21.57;;;1.90;99.60;;;0.87;91.17;103122.13;5030093;28;20221;-73
2023/01/23 08:34:05;;;;;;;36.70;21.90;;;1.90;99.90;;;0.89;91.14;103117.69;5029891;28;20631;-73
2023/01/23 08:36:33;;;;;;;39.30;21.77;;;2.00;99.40;;;0.89;90.79;103115.06;5029675;28;20210;-73
2023/01/23 08:39:01;;;;;;;34.23;21.30;;;1.90;99.30;;;0.91;91.20;103123.78;5029873;28;20233;-73
2023/01/23 08:41:31;;;;;;;34.53;21.37;;;1.90;99.70;;;0.92;90.63;103125.50;5030127;28;20214;-73
2023/01/23 08:44:00;;;;;;;35.17;21.53;;;2.00;99.30;;;0.92;90.91;103128.16;5029485;28;20214;-73
2023/01/23 08:46:29;;;;;;;34.43;20.97;;;2.00;99.30;;;0.95;90.75;103130.69;5029592;28;20207;-73
2023/01/23 08:48:57;;;;;;;34.50;21.50;;;2.00;99.30;;;0.95;90.98;103133.34;5029141;28;20273;-73
2023/01/23 08:51:26;;;;;;;32.83;21.40;;;2.00;99.20;;;0.94;91.06;103139.50;5029864;28;20217;-73
2023/01/23 08:53:54;;;;;;;34.50;21.60;;;2.00;99.30;;;0.95;90.60;103135.97;5029804;28;20298;-73
2023/01/23 08:56:24;;;;;;;34.10;21.80;;;2.00;99.30;;;0.93;90.38;103132.50;5029395;28;20624;-73
2023/01/23 08:58:54;;;;;;;36.67;22.07;;;2.00;99.30;;;0.88;90.54;103134.41;5029849;28;20218;-73
2023/01/23 09:01:25;;;;;;;40.47;23.67;;;2.00;99.20;;;0.87;90.44;103137.94;5029368;28;20686;-73
2023/01/23 09:03:54;;;;;;;37.33;22.70;;;2.00;99.40;;;0.89;90.64;103136.16;5029763;28;20210;-73
2023/01/23 09:06:23;;;;;;;40.53;23.33;;;1.90;99.50;;;0.85;90.54;103129.22;5028657;28;20213;-73
2023/01/23 09:08:51;;;;;;;36.93;22.07;;;1.90;99.40;;;0.87;91.17;103127.38;5029183;28;20255;-73
2023/01/23 09:11:21;;;;;;;36.80;22.47;;;1.90;99.60;;;0.90;90.48;103145.75;5028741;28;20228;-73
2023/01/23 09:13:50;;;;;;;38.70;24.33;;;1.90;99.50;;;0.90;90.50;103143.13;5028698;28;20650;-73
2023/01/23 09:16:22;;;;;;;39.83;22.93;;;2.00;99.50;;;0.92;91.13;103136.94;5028429;28;20206;-73
2023/01/23 09:18:50;;;;;;;41.60;23.53;;;2.00;99.50;;;0.93;90.50;103146.56;5027585;28;20218;-72
2023/01/23 09:21:18;;;;;;;39.83;23.30;;;2.00;99.40;;;0.92;90.86;103149.25;5029129;28;20310;-73
2023/01/23 09:23:47;;;;;;;39.87;23.67;;;2.00;99.40;;;0.92;90.64;103157.16;5029029;28;20211;-72
2023/01/23 09:26:15;;;;;;;44.70;24.80;;;2.00;99.50;;;0.92;91.70;103159.78;5028575;28;20224;-73
2023/01/23 09:28:47;;;;;;;38.47;22.07;;;1.90;99.60;;;0.96;91.23;103150.88;5024376;28;20315;-73
2023/01/23 09:31:17;;;;;;;42.90;23.23;;;2.00;99.60;;;0.95;90.90;103157.06;5029248;28;20592;-73
2023/01/23 09:33:48;;;;;;;40.60;23.63;;;2.00;99.50;;;0.91;91.01;103165.97;5029086;28;20218;-73
2023/01/23 09:36:16;;;;;;;42.97;23.83;;;2.00;99.50;;;0.92;91.52;103162.44;5028828;28;20202;-72
2023/01/23 09:38:44;;;;;;;39.63;23.03;;;2.00;99.70;;;0.92;90.85;103165.94;5029395;28;20229;-72
2023/01/23 09:41:19;;;;;;;42.97;23.87;;;2.00;99.80;;;0.95;91.03;103170.25;5028817;28;20679;-72
2023/01/23 09:43:58;;;;;;;40.83;23.67;;;2.00;99.70;;;0.97;91.80;103171.06;5029171;28;20214;-73
2023/01/23 09:46:32;;;;;;;46.83;24.90;;;2.00;99.70;;;0.98;91.32;103178.09;5028427;28;20191;-72
2023/01/23 09:49:12;;;;;;;36.17;22.30;;;2.00;99.60;;;0.99;91.00;103185.13;5029561;28;20252;-73
2023/01/23 09:51:55;;;;;;;44.93;24.17;;;2.00;99.70;;;1.02;91.18;103187.66;5033019;28;20210;-73
2023/01/23 09:54:37;;;;;;;44.23;24.50;;;2.10;99.60;;;0.99;91.18;103185.13;5033013;28;20217;-73
2023/01/23 09:57:14;;;;;;;43.07;23.77;;;2.00;99.50;;;0.99;91.74;103187.75;5032662;28;20206;-73
2023/01/23 09:59:50;;;;;;;47.63;25.30;;;2.00;99.60;;;0.95;91.11;103192.22;5033118;28;20223;-74
2023/01/23 10:02:28;;;;;;;47.20;25.80;;;2.00;99.70;;;0.94;91.78;103192.25;5013323;28;20270;-74
2023/01/23 10:05:01;;;;;;;48.87;25.50;;;2.00;99.80;;;0.96;92.09;103187.78;5013123;28;20211;-74
2023/01/23 10:08:05;;;;;;;46.67;24.97;;;2.00;99.90;;;0.97;91.88;103182.50;5012937;28;20258;-74
2023/01/23 10:10:58;;;;;;;54.03;25.33;;;2.00;99.80;;;0.98;91.37;103188.66;5012877;28;20229;-74
2023/01/23 10:13:54;;;;;;;45.93;24.33;;;2.00;99.80;;;1.01;92.00;103193.84;5012607;28;20203;-73
2023/01/23 10:16:45;;;;;;;44.93;23.80;;;2.10;99.90;;;1.05;91.69;103200.78;5012458;28;20208;-73
2023/01/23 10:19:53;;;;;;;45.30;24.97;;;2.10;99.70;;;1.02;91.10;103198.22;5012481;28;20223;-73
2023/01/23 10:22:39;;;;;;;51.30;25.70;;;2.10;99.60;;;0.97;91.26;103197.44;5012280;28;20290;-74
2023/01/23 10:25:17;;;;;;;49.03;25.80;;;2.00;99.90;;;0.96;91.30;103200.97;5012310;28;20751;-74
2023/01/23 10:27:47;;;;;;;45.93;24.50;;;2.00;99.90;;;0.96;91.93;103200.97;5012926;28;20251;-74
2023/01/23 10:30:29;;;;;;;44.07;24.43;;;2.00;99.90;;;0.93;91.36;103195.78;5030114;28;20243;-73